Time;durP1;ratioP1;P1;durP2;ratioP2;P2;SDS_P1;SDS_P2;PMS_P1;PMS_P2;Temp;Humidity;BMP_temperature;BMP_pressure;BME280_temperature;BME280_humidity;BME280_pressure;Samples;Min_cycle;Max_cycle;Signal;HPM_P1;HPM_P2
2022/05/02 00:01:13;;;;;;;;;;;;;;;;;;5057930;28;19916;-43
2022/05/02 00:03:38;;;;;;;;;;;;;;;;;;5057727;28;19908;-43
2022/05/02 00:06:03;;;;;;;;;;;;;;;;;;5056896;28;19915;-43
2022/05/02 00:08:29;;;;;;;;;;;;;;;;;;5053155;28;19919;-43
2022/05/02 00:10:54;;;;;;;;;;;;;;;;;;5057592;28;19909;-43
2022/05/02 00:13:19;;;;;;;;;;;;;;;;;;5057586;28;19955;-43
2022/05/02 00:15:46;;;;;;;;;;;;;;;;;;5057644;28;19913;-43
2022/05/02 00:18:11;;;;;;;;;;;;;;;;;;5057453;28;19913;-43
2022/05/02 00:20:36;;;;;;;;;;;;;;;;;;5057343;28;20291;-43
2022/05/02 00:23:01;;;;;;;;;;;;;;;;;;5057443;28;19932;-43
2022/05/02 00:25:26;;;;;;;;;;;;;;;;;;5057161;28;19932;-43
2022/05/02 00:27:51;;;;;;;;;;;;;;;;;;5057243;28;19921;-44
2022/05/02 00:30:16;;;;;;;;;;;;;;;;;;5056954;28;19915;-43
2022/05/02 00:32:41;;;;;;;;;;;;;;;;;;5056663;28;19913;-43
2022/05/02 00:35:06;;;;;;;;;;;;;;;;;;5056970;28;19915;-43
2022/05/02 00:37:32;;;;;;;;;;;;;;;;;;5056908;28;19920;-43
2022/05/02 00:39:57;;;;;;;;;;;;;;;;;;5056899;28;19916;-44
2022/05/02 00:42:22;;;;;;;;;;;;;;;;;;5056897;28;19916;-43
2022/05/02 00:44:47;;;;;;;;;;;;;;;;;;5056836;28;19916;-43
2022/05/02 00:47:15;;;;;;;;;;;;;;;;;;5056658;28;20275;-43
2022/05/02 00:49:40;;;;;;;;;;;;;;;;;;5056584;28;19909;-43
2022/05/02 00:52:05;;;;;;;;;;;;;;;;;;5055355;28;20352;-43
2022/05/02 00:54:30;;;;;;;;;;;;;;;;;;5056360;28;19933;-43
2022/05/02 00:56:55;;;;;;;;;;;;;;;;;;5056736;28;19916;-43
2022/05/02 00:59:21;;;;;;;;;;;;;;;;;;5056747;28;19915;-43
2022/05/02 01:01:46;;;;;;;;;;;;;;;;;;5056793;28;19916;-43
2022/05/02 01:04:11;;;;;;;;;;;;;;;;;;5056734;28;19916;-44
2022/05/02 01:09:20;;;;;;;;;;;;;;;;;;5056472;28;19916;-44
2022/05/02 01:11:45;;;;;;;;;;;;;;;;;;5055952;28;19912;-45
2022/05/02 01:14:10;;;;;;;;;;;;;;;;;;5056049;28;19941;-43
2022/05/02 01:16:35;;;;;;;;;;;;;;;;;;5055897;28;19909;-43
2022/05/02 01:19:00;;;;;;;;;;;;;;;;;;5056371;28;19909;-43
2022/05/02 01:21:25;;;;;;;;;;;;;;;;;;5056104;28;19963;-43
2022/05/02 01:23:50;;;;;;;;;;;;;;;;;;5055972;28;19917;-43
2022/05/02 01:26:15;;;;;;;;;;;;;;;;;;5055203;28;20360;-43
2022/05/02 01:28:41;;;;;;;;;;;;;;;;;;5048800;22;20364;-43
2022/05/02 01:31:06;;;;;;;;;;;;;;;;;;5035784;28;19920;-43
2022/05/02 01:33:31;;;;;;;;;;;;;;;;;;5035596;28;19913;-44
2022/05/02 01:35:56;;;;;;;;;;;;;;;;;;5035637;28;19909;-43
2022/05/02 01:38:21;;;;;;;;;;;;;;;;;;5035849;28;19905;-44
2022/05/02 01:40:46;;;;;;;;;;;;;;;;;;5035809;28;19916;-43
2022/05/02 01:43:11;;;;;;;;;;;;;;;;;;5034706;28;19913;-44
2022/05/02 01:45:36;;;;;;;;;;;;;;;;;;5035360;28;19916;-44
2022/05/02 01:48:02;;;;;;;;;;;;;;;;;;5034828;28;19967;-43
2022/05/02 01:50:27;;;;;;;;;;;;;;;;;;5035261;28;20276;-42
2022/05/02 01:52:52;;;;;;;;;;;;;;;;;;5035235;28;19913;-44
2022/05/02 01:55:17;;;;;;;;;;;;;;;;;;5035442;28;19909;-44
2022/05/02 01:57:42;;;;;;;;;;;;;;;;;;5035215;28;19971;-43
2022/05/02 02:00:07;;;;;;;;;;;;;;;;;;5035155;28;19955;-43
2022/05/02 02:02:32;;;;;;;;;;;;;;;;;;5035258;28;19916;-43
2022/05/02 02:07:41;;;;;;;;;;;;;;;;;;5035645;28;19916;-43
2022/05/02 02:10:07;;;;;;;;;;;;;;;;;;5035226;28;20264;-43
2022/05/02 02:12:32;;;;;;;;;;;;;;;;;;5035377;28;19914;-44
2022/05/02 02:14:57;;;;;;;;;;;;;;;;;;5035528;28;19909;-41
2022/05/02 02:17:22;;;;;;;;;;;;;;;;;;5034676;28;20011;-43
2022/05/02 02:19:47;;;;;;;;;;;;;;;;;;5035256;28;19916;-43
2022/05/02 02:22:19;;;;;;;;;;;;;;;;;;5035025;28;20356;-44
2022/05/02 02:24:44;;;;;;;;;;;;;;;;;;5035200;28;20263;-45
2022/05/02 02:27:09;;;;;;;;;;;;;;;;;;5053222;28;20020;-43
2022/05/02 02:29:34;;;;;;;;;;;;;;;;;;5054580;28;19953;-43
2022/05/02 02:31:59;;;;;;;;;;;;;;;;;;5054800;28;20433;-43
2022/05/02 02:34:24;;;;;;;;;;;;;;;;;;5054689;28;20253;-43
2022/05/02 02:36:49;;;;;;;;;;;;;;;;;;5054886;28;19916;-43
2022/05/02 02:39:14;;;;;;;;;;;;;;;;;;5054772;28;19916;-43
2022/05/02 02:41:39;;;;;;;;;;;;;;;;;;5054583;28;19916;-43
2022/05/02 02:44:04;;;;;;;;;;;;;;;;;;5055212;28;19913;-42
2022/05/02 02:46:29;;;;;;;;;;;;;;;;;;5054774;28;19909;-42
2022/05/02 02:48:55;;;;;;;;;;;;;;;;;;5054642;28;19920;-42
2022/05/02 02:51:20;;;;;;;;;;;;;;;;;;5054577;28;19913;-42
2022/05/02 02:53:45;;;;;;;;;;;;;;;;;;5054847;28;20352;-42
2022/05/02 02:56:10;;;;;;;;;;;;;;;;;;5058679;28;19916;-42
2022/05/02 02:58:35;;;;;;;;;;;;;;;;;;5059119;28;19912;-42
2022/05/02 03:01:00;;;;;;;;;;;;;;;;;;5058960;28;19913;-42
2022/05/02 03:03:25;;;;;;;;;;;;;;;;;;5058834;28;19909;-42
2022/05/02 03:06:03;;;;;;;;;;;;;;;;;;5058906;28;20375;-42
2022/05/02 03:08:28;;;;;;;;;;;;;;;;;;5058723;28;20364;-43
2022/05/02 03:10:55;;;;;;;;;;;;;;;;;;5058846;28;19912;-42
2022/05/02 03:13:20;;;;;;;;;;;;;;;;;;5058977;28;19927;-42
2022/05/02 03:15:45;;;;;;;;;;;;;;;;;;5058863;28;19916;-43
2022/05/02 03:18:10;;;;;;;;;;;;;;;;;;5058582;28;20352;-42
2022/05/02 03:20:35;;;;;;;;;;;;;;;;;;5058662;28;20279;-43
2022/05/02 03:23:00;;;;;;;;;;;;;;;;;;5058367;28;19909;-43
2022/05/02 03:25:25;;;;;;;;;;;;;;;;;;5057985;28;19975;-42
2022/05/02 03:27:50;;;;;;;;;;;;;;;;;;5057768;28;19924;-42
2022/05/02 03:30:16;;;;;;;;;;;;;;;;;;5058009;28;19912;-43
2022/05/02 03:32:41;;;;;;;;;;;;;;;;;;5058226;28;19912;-43
2022/05/02 03:35:06;;;;;;;;;;;;;;;;;;5058033;28;19909;-43
2022/05/02 03:37:31;;;;;;;;;;;;;;;;;;5057983;28;20364;-43
2022/05/02 03:39:56;;;;;;;;;;;;;;;;;;5057848;28;19909;-42
2022/05/02 03:42:21;;;;;;;;;;;;;;;;;;5058228;28;19909;-43
2022/05/02 03:44:46;;;;;;;;;;;;;;;;;;5057761;28;19963;-44
2022/05/02 03:47:11;;;;;;;;;;;;;;;;;;5057981;28;20288;-42
2022/05/02 03:49:37;;;;;;;;;;;;;;;;;;5056680;28;20368;-42
2022/05/02 03:52:02;;;;;;;;;;;;;;;;;;5057857;28;19917;-42
2022/05/02 03:54:27;;;;;;;;;;;;;;;;;;5057784;28;19913;-42
2022/05/02 03:56:52;;;;;;;;;;;;;;;;;;5057536;28;19908;-42
2022/05/02 03:59:17;;;;;;;;;;;;;;;;;;5057464;28;20000;-42
2022/05/02 04:01:42;;;;;;;;;;;;;;;;;;5057432;28;20378;-42
2022/05/02 04:04:07;;;;;;;;;;;;;;;;;;5057636;28;19905;-43
2022/05/02 04:06:33;;;;;;;;;;;;;;;;;;5057053;28;19995;-43
2022/05/02 04:08:58;;;;;;;;;;;;;;;;;;5057636;28;19950;-42
2022/05/02 04:11:23;;;;;;;;;;;;;;;;;;5058246;28;19920;-42
2022/05/02 04:13:48;;;;;;;;;;;;;;;;;;5057873;28;19948;-43
2022/05/02 04:16:13;;;;;;;;;;;;;;;;;;5057654;28;19913;-42
2022/05/02 04:18:38;;;;;;;;;;;;;;;;;;5057754;28;19987;-44
2022/05/02 04:21:03;;;;;;;;;;;;;;;;;;5057414;28;19913;-42
2022/05/02 04:23:28;;;;;;;;;;;;;;;;;;5057280;28;19909;-42
2022/05/02 04:25:54;;;;;;;;;;;;;;;;;;5056412;28;20283;-42
2022/05/02 04:28:19;;;;;;;;;;;;;;;;;;5056755;28;19921;-42
2022/05/02 04:30:44;;;;;;;;;;;;;;;;;;5057146;28;19916;-42
2022/05/02 04:33:09;;;;;;;;;;;;;;;;;;5057236;28;19919;-42
2022/05/02 04:35:34;;;;;;;;;;;;;;;;;;5057093;28;20295;-42
2022/05/02 04:38:01;;;;;;;;;;;;;;;;;;5056920;28;19913;-42
2022/05/02 04:40:26;;;;;;;;;;;;;;;;;;5057076;28;20007;-42
2022/05/02 04:42:51;;;;;;;;;;;;;;;;;;5055634;28;19956;-42
2022/05/02 04:45:16;;;;;;;;;;;;;;;;;;5056998;28;19976;-43
2022/05/02 04:47:41;;;;;;;;;;;;;;;;;;5057180;28;20009;-43
2022/05/02 04:50:06;;;;;;;;;;;;;;;;;;5056947;28;19940;-42
2022/05/02 04:52:31;;;;;;;;;;;;;;;;;;5056724;28;20008;-42
2022/05/02 04:54:56;;;;;;;;;;;;;;;;;;5056184;28;19913;-43
2022/05/02 04:57:21;;;;;;;;;;;;;;;;;;5055355;28;19917;-43
2022/05/02 04:59:46;;;;;;;;;;;;;;;;;;5056547;28;19908;-42
2022/05/02 05:02:12;;;;;;;;;;;;;;;;;;5057172;28;19913;-42
2022/05/02 05:04:37;;;;;;;;;;;;;;;;;;5056432;28;19909;-42
2022/05/02 05:07:02;;;;;;;;;;;;;;;;;;5056359;28;19909;-42
2022/05/02 05:09:27;;;;;;;;;;;;;;;;;;5056363;28;19909;-42
2022/05/02 05:11:52;;;;;;;;;;;;;;;;;;5056156;28;19913;-42
2022/05/02 05:17:01;;;;;;;;;;;;;;;;;;5055868;28;19915;-42
2022/05/02 05:19:26;;;;;;;;;;;;;;;;;;5055270;28;19999;-43
2022/05/02 05:21:51;;;;;;;;;;;;;;;;;;5056348;28;19935;-43
2022/05/02 05:24:16;;;;;;;;;;;;;;;;;;5055854;28;19958;-42
2022/05/02 05:26:41;;;;;;;;;;;;;;;;;;5056435;28;19917;-43
2022/05/02 05:29:06;;;;;;;;;;;;;;;;;;5056117;28;19920;-43
2022/05/02 05:31:36;;;;;;;;;;;;;;;;;;5055701;28;19949;-43
2022/05/02 05:34:01;;;;;;;;;;;;;;;;;;5056081;28;19930;-42
2022/05/02 05:36:26;;;;;;;;;;;;;;;;;;5056046;28;19995;-42
2022/05/02 05:38:51;;;;;;;;;;;;;;;;;;5055972;28;20011;-42
2022/05/02 05:41:16;;;;;;;;;;;;;;;;;;5056061;28;20008;-43
2022/05/02 05:43:42;;;;;;;;;;;;;;;;;;5055662;28;19909;-42
2022/05/02 05:46:07;;;;;;;;;;;;;;;;;;5055849;28;19909;-41
2022/05/02 05:48:32;;;;;;;;;;;;;;;;;;5055781;28;20383;-44
2022/05/02 05:50:57;;;;;;;;;;;;;;;;;;5055644;28;19935;-42
2022/05/02 05:53:22;;;;;;;;;;;;;;;;;;5055365;28;19915;-41
2022/05/02 05:55:48;;;;;;;;;;;;;;;;;;5055105;28;19920;-42
2022/05/02 05:58:13;;;;;;;;;;;;;;;;;;5055563;28;20264;-41
2022/05/02 06:00:38;;;;;;;;;;;;;;;;;;5055410;28;20022;-42
2022/05/02 06:03:03;;;;;;;;;;;;;;;;;;5055445;28;19912;-42
2022/05/02 06:05:28;;;;;;;;;;;;;;;;;;5054615;28;19919;-42
2022/05/02 06:07:54;;;;;;;;;;;;;;;;;;5055426;28;19908;-43
2022/05/02 06:10:19;;;;;;;;;;;;;;;;;;5055415;28;19930;-43
2022/05/02 06:12:44;;;;;;;;;;;;;;;;;;5054715;28;19913;-42
2022/05/02 06:20:40;;;;;;;;;;;;;;;;;;5055272;28;20006;-42
2022/05/02 06:23:05;;;;;;;;;;;;;;;;;;5055072;28;19912;-42
2022/05/02 06:25:30;;;;;;;;;;;;;;;;;;5054240;28;20275;-43
2022/05/02 06:27:55;;;;;;;;;;;;;;;;;;5054878;28;19923;-42
2022/05/02 06:30:22;;;;;;;;;;;;;;;;;;5054799;28;19971;-43
2022/05/02 06:32:47;;;;;;;;;;;;;;;;;;5054902;28;20372;-43
2022/05/02 06:35:12;;;;;;;;;;;;;;;;;;5053505;28;19963;-43
2022/05/02 06:37:37;;;;;;;;;;;;;;;;;;5054439;28;20444;-43
2022/05/02 06:40:02;;;;;;;;;;;;;;;;;;5054840;28;19909;-43
2022/05/02 06:42:27;;;;;;;;;;;;;;;;;;5054944;28;20356;-43
2022/05/02 06:44:52;;;;;;;;;;;;;;;;;;5054478;28;20075;-44
2022/05/02 06:47:17;;;;;;;;;;;;;;;;;;5054832;28;20054;-44
2022/05/02 06:49:42;;;;;;;;;;;;;;;;;;5053156;28;20485;-43
2022/05/02 06:52:08;;;;;;;;;;;;;;;;;;5054092;28;19913;-44
2022/05/02 06:54:33;;;;;;;;;;;;;;;;;;5054033;28;19916;-43
2022/05/02 06:56:58;;;;;;;;;;;;;;;;;;5054747;28;19909;-43
2022/05/02 06:59:23;;;;;;;;;;;;;;;;;;5054574;28;19909;-43
2022/05/02 07:01:48;;;;;;;;;;;;;;;;;;5054846;28;19909;-43
2022/05/02 07:04:14;;;;;;;;;;;;;;;;;;5054405;28;19909;-43
2022/05/02 07:06:39;;;;;;;;;;;;;;;;;;5054373;28;19952;-44
2022/05/02 07:09:04;;;;;;;;;;;;;;;;;;5054554;28;19909;-43
2022/05/02 07:11:30;;;;;;;;;;;;;;;;;;5054325;28;19913;-43
2022/05/02 07:13:55;;;;;;;;;;;;;;;;;;5054442;28;19995;-43
2022/05/02 07:16:21;;;;;;;;;;;;;;;;;;5054406;28;19915;-42
2022/05/02 07:18:46;;;;;;;;;;;;;;;;;;5053334;28;20386;-42
2022/05/02 07:21:11;;;;;;;;;;;;;;;;;;5054058;28;19917;-42
2022/05/02 07:23:37;;;;;;;;;;;;;;;;;;5053818;28;19912;-42
2022/05/02 07:26:02;;;;;;;;;;;;;;;;;;5054271;28;19909;-43
2022/05/02 07:28:27;;;;;;;;;;;;;;;;;;5053987;28;20372;-43
2022/05/02 07:30:52;;;;;;;;;;;;;;;;;;5054235;28;19913;-43
2022/05/02 07:33:17;;;;;;;;;;;;;;;;;;5054469;28;19967;-43
2022/05/02 07:35:42;;;;;;;;;;;;;;;;;;5054252;28;19909;-43
2022/05/02 07:38:07;;;;;;;;;;;;;;;;;;5054329;28;19909;-44
2022/05/02 07:40:33;;;;;;;;;;;;;;;;;;5053995;28;20287;-43
2022/05/02 07:42:58;;;;;;;;;;;;;;;;;;5057445;28;20313;-44
2022/05/02 07:45:24;;;;;;;;;;;;;;;;;;5057839;28;19912;-43
2022/05/02 07:47:49;;;;;;;;;;;;;;;;;;5057816;28;20047;-44
2022/05/02 07:50:14;;;;;;;;;;;;;;;;;;5058063;28;19913;-43
2022/05/02 07:52:40;;;;;;;;;;;;;;;;;;5057418;28;19917;-43
2022/05/02 07:55:05;;;;;;;;;;;;;;;;;;5057836;28;19909;-42
2022/05/02 07:57:30;;;;;;;;;;;;;;;;;;5057800;28;19909;-45
2022/05/02 07:59:56;;;;;;;;;;;;;;;;;;5057482;28;19913;-42
2022/05/02 08:02:21;;;;;;;;;;;;;;;;;;5057493;28;19909;-42
2022/05/02 08:04:46;;;;;;;;;;;;;;;;;;5057803;28;19909;-43
2022/05/02 08:07:11;;;;;;;;;;;;;;;;;;5057386;28;19913;-42
2022/05/02 08:09:37;;;;;;;;;;;;;;;;;;5057526;28;19909;-43
2022/05/02 08:12:02;;;;;;;;;;;;;;;;;;5057184;28;19916;-42
2022/05/02 08:14:27;;;;;;;;;;;;;;;;;;5057337;28;19916;-44
2022/05/02 08:16:53;;;;;;;;;;;;;;;;;;5057155;28;19920;-43
2022/05/02 08:19:18;;;;;;;;;;;;;;;;;;5057381;28;19916;-43
2022/05/02 08:21:44;;;;;;;;;;;;;;;;;;5056803;28;19913;-43
2022/05/02 08:29:37;;;;;;;;;;;;;;;;;;5056795;28;20311;-42
2022/05/02 08:32:02;;;;;;;;;;;;;;;;;;5055603;28;19913;-44
2022/05/02 08:34:28;;;;;;;;;;;;;;;;;;5056973;28;19992;-44
2022/05/02 08:36:53;;;;;;;;;;;;;;;;;;5056867;28;20351;-43
2022/05/02 08:39:18;;;;;;;;;;;;;;;;;;5055721;28;20418;-43
2022/05/02 08:41:43;;;;;;;;;;;;;;;;;;5056896;28;20367;-43
2022/05/02 08:44:08;;;;;;;;;;;;;;;;;;5056690;28;19909;-43
2022/05/02 08:46:33;;;;;;;;;;;;;;;;;;5056526;28;19908;-43
2022/05/02 08:51:42;;;;;;;;;;;;;;;;;;5056213;28;19923;-44
2022/05/02 08:54:07;;;;;;;;;;;;;;;;;;5056203;28;20357;-44
2022/05/02 08:56:32;;;;;;;;;;;;;;;;;;5056287;28;20257;-44
2022/05/02 08:58:58;;;;;;;;;;;;;;;;;;5056738;28;19909;-44
2022/05/02 09:01:23;;;;;;;;;;;;;;;;;;5056281;28;19909;-43
2022/05/02 09:03:48;;;;;;;;;;;;;;;;;;5056025;28;19913;-43
2022/05/02 09:06:13;;;;;;;;;;;;;;;;;;5055976;28;19905;-43
2022/05/02 09:08:38;;;;;;;;;;;;;;;;;;5055923;28;20019;-46
2022/05/02 09:11:04;;;;;;;;;;;;;;;;;;5054631;28;19913;-44
2022/05/02 09:13:29;;;;;;;;;;;;;;;;;;5056103;28;19987;-44
2022/05/02 09:15:57;;;;;;;;;;;;;;;;;;5055892;28;19909;-43
2022/05/02 09:18:22;;;;;;;;;;;;;;;;;;5054609;28;20356;-43
2022/05/02 09:20:47;;;;;;;;;;;;;;;;;;5055501;28;19935;-44
2022/05/02 09:23:12;;;;;;;;;;;;;;;;;;5055682;28;19920;-45
2022/05/02 09:25:37;;;;;;;;;;;;;;;;;;5055559;28;19919;-44
2022/05/02 09:28:02;;;;;;;;;;;;;;;;;;5055285;28;19921;-44
2022/05/02 09:30:27;;;;;;;;;;;;;;;;;;5055479;28;19912;-44
2022/05/02 09:32:52;;;;;;;;;;;;;;;;;;5055389;28;19916;-44
2022/05/02 09:35:18;;;;;;;;;;;;;;;;;;5055191;28;20003;-44
2022/05/02 09:37:44;;;;;;;;;;;;;;;;;;5055451;28;20411;-45
2022/05/02 09:40:09;;;;;;;;;;;;;;;;;;5055352;28;19913;-44
2022/05/02 09:42:35;;;;;;;;;;;;;;;;;;5055316;28;19916;-44
2022/05/02 09:50:27;;;;;;;;;;;;;;;;;;5054987;28;19978;-44
2022/05/02 09:52:53;;;;;;;;;;;;;;;;;;5054712;28;19921;-43
2022/05/02 09:58:03;;;;;;;;;;;;;;;;;;5055020;28;19916;-44
2022/05/02 10:03:12;;;;;;;;;;;;;;;;;;5055035;28;20509;-45
2022/05/02 10:05:37;;;;;;;;;;;;;;;;;;5054544;28;19909;-44
2022/05/02 10:08:02;;;;;;;;;;;;;;;;;;5054990;28;19908;-45
2022/05/02 10:10:27;;;;;;;;;;;;;;;;;;5050361;28;19912;-45
2022/05/02 10:12:53;;;;;;;;;;;;;;;;;;5054974;28;19920;-45
2022/05/02 10:15:18;;;;;;;;;;;;;;;;;;5054805;28;19916;-45
2022/05/02 10:17:43;;;;;;;;;;;;;;;;;;5054643;28;19962;-45
2022/05/02 10:20:08;;;;;;;;;;;;;;;;;;5054578;28;20058;-45
2022/05/02 10:22:33;;;;;;;;;;;;;;;;;;5054130;28;20360;-45
2022/05/02 10:24:58;;;;;;;;;;;;;;;;;;5054322;28;19920;-45
2022/05/02 10:27:24;;;;;;;;;;;;;;;;;;5054385;28;19915;-44
2022/05/02 10:29:49;;;;;;;;;;;;;;;;;;5054594;28;19967;-46
2022/05/02 10:32:14;;;;;;;;;;;;;;;;;;5054378;28;19913;-44
2022/05/02 10:34:39;;;;;;;;;;;;;;;;;;5052966;28;20442;-45
2022/05/02 10:37:06;;;;;;;;;;;;;;;;;;5054419;28;20332;-43
2022/05/02 10:39:32;;;;;;;;;;;;;;;;;;5054657;28;19912;-44
2022/05/02 10:41:58;;;;;;;;;;;;;;;;;;5054394;28;19920;-44
2022/05/02 10:44:23;;;;;;;;;;;;;;;;;;5054360;28;19940;-44
2022/05/02 10:46:48;;;;;;;;;;;;;;;;;;5054434;28;19960;-44
2022/05/02 10:49:13;;;;;;;;;;;;;;;;;;5054175;28;20024;-45
2022/05/02 10:51:40;;;;;;;;;;;;;;;;;;5055552;28;20003;-44
2022/05/02 10:54:05;;;;;;;;;;;;;;;;;;5052631;28;19916;-43
2022/05/02 10:56:30;;;;;;;;;;;;;;;;;;5054058;28;20338;-45
2022/05/02 10:58:55;;;;;;;;;;;;;;;;;;5049299;28;20261;-43
2022/05/02 11:01:20;;;;;;;;;;;;;;;;;;5034336;28;20253;-43
2022/05/02 11:03:46;;;;;;;;;;;;;;;;;;5054278;28;19909;-44
2022/05/02 11:06:11;;;;;;;;;;;;;;;;;;5054072;28;19974;-44
2022/05/02 11:08:37;;;;;;;;;;;;;;;;;;5054208;28;19940;-44
2022/05/02 11:11:02;;;;;;;;;;;;;;;;;;5051018;28;20015;-43
2022/05/02 11:13:27;;;;;;;;;;;;;;;;;;5053727;28;19991;-44
2022/05/02 11:15:52;;;;;;;;;;;;;;;;;;5054429;28;19920;-43
2022/05/02 11:21:01;;;;;;;;;;;;;;;;;;5057678;28;19970;-44
2022/05/02 11:23:26;;;;;;;;;;;;;;;;;;5057941;28;19913;-44
2022/05/02 11:25:51;;;;;;;;;;;;;;;;;;5058071;28;20037;-44
2022/05/02 11:28:16;;;;;;;;;;;;;;;;;;5056679;28;19927;-43
2022/05/02 11:30:41;;;;;;;;;;;;;;;;;;5057757;28;19915;-43
2022/05/02 11:33:07;;;;;;;;;;;;;;;;;;5057929;28;19919;-44
2022/05/02 11:35:32;;;;;;;;;;;;;;;;;;5057879;28;19919;-44
2022/05/02 11:37:57;;;;;;;;;;;;;;;;;;5057983;28;19908;-43
2022/05/02 11:40:22;;;;;;;;;;;;;;;;;;5057869;28;19934;-44
2022/05/02 11:42:47;;;;;;;;;;;;;;;;;;5057673;28;19913;-44
2022/05/02 11:45:12;;;;;;;;;;;;;;;;;;5057542;28;19909;-44
2022/05/02 11:47:38;;;;;;;;;;;;;;;;;;5056403;28;19913;-44
2022/05/02 11:50:03;;;;;;;;;;;;;;;;;;5057538;28;19909;-44
2022/05/02 11:52:28;;;;;;;;;;;;;;;;;;5057276;28;19916;-44
2022/05/02 11:54:54;;;;;;;;;;;;;;;;;;5057303;28;19996;-44
2022/05/02 11:57:20;;;;;;;;;;;;;;;;;;5057265;28;19948;-43
2022/05/02 11:59:45;;;;;;;;;;;;;;;;;;5057530;28;19909;-44
2022/05/02 12:02:10;;;;;;;;;;;;;;;;;;5057452;28;19915;-43
2022/05/02 12:04:36;;;;;;;;;;;;;;;;;;5057333;28;20370;-45
2022/05/02 12:07:01;;;;;;;;;;;;;;;;;;5057148;28;19988;-44
2022/05/02 12:09:27;;;;;;;;;;;;;;;;;;5057228;28;19921;-44
2022/05/02 12:11:53;;;;;;;;;;;;;;;;;;5056572;28;20379;-43
2022/05/02 12:14:18;;;;;;;;;;;;;;;;;;5054974;28;19912;-44
2022/05/02 12:16:43;;;;;;;;;;;;;;;;;;5056986;28;19951;-43
2022/05/02 12:19:08;;;;;;;;;;;;;;;;;;5057040;28;20326;-45
2022/05/02 12:21:33;;;;;;;;;;;;;;;;;;5056858;28;19912;-44
2022/05/02 12:23:58;;;;;;;;;;;;;;;;;;5056760;28;19916;-45
2022/05/02 12:26:23;;;;;;;;;;;;;;;;;;5056593;28;19916;-43
2022/05/02 12:28:49;;;;;;;;;;;;;;;;;;5056269;28;19921;-44
2022/05/02 12:31:15;;;;;;;;;;;;;;;;;;5056555;28;19971;-44
2022/05/02 12:33:40;;;;;;;;;;;;;;;;;;5056640;28;19909;-44
2022/05/02 12:36:05;;;;;;;;;;;;;;;;;;5056669;28;20451;-44
2022/05/02 12:38:30;;;;;;;;;;;;;;;;;;5056806;28;19937;-45
2022/05/02 12:40:57;;;;;;;;;;;;;;;;;;5056647;28;19945;-44
2022/05/02 12:43:22;;;;;;;;;;;;;;;;;;5056752;28;19995;-44
2022/05/02 12:45:48;;;;;;;;;;;;;;;;;;5056749;28;19963;-44
2022/05/02 12:48:14;;;;;;;;;;;;;;;;;;5056385;28;19912;-44
2022/05/02 12:50:39;;;;;;;;;;;;;;;;;;5056535;28;19996;-44
2022/05/02 12:53:06;;;;;;;;;;;;;;;;;;5056333;28;20007;-44
2022/05/02 12:55:31;;;;;;;;;;;;;;;;;;5056149;28;19913;-44
2022/05/02 13:00:40;;;;;;;;;;;;;;;;;;5056201;28;19912;-44
2022/05/02 13:03:05;;;;;;;;;;;;;;;;;;5054284;28;19913;-44
2022/05/02 13:05:31;;;;;;;;;;;;;;;;;;5056082;28;19913;-44
2022/05/02 13:07:56;;;;;;;;;;;;;;;;;;5056068;28;20415;-44
2022/05/02 13:10:21;;;;;;;;;;;;;;;;;;5055972;28;20241;-44
2022/05/02 13:12:46;;;;;;;;;;;;;;;;;;5055656;28;19913;-44
2022/05/02 13:15:12;;;;;;;;;;;;;;;;;;5055757;28;19913;-44
2022/05/02 13:17:37;;;;;;;;;;;;;;;;;;5055873;28;20316;-43
2022/05/02 13:20:05;;;;;;;;;;;;;;;;;;5055938;28;19908;-45
2022/05/02 13:22:30;;;;;;;;;;;;;;;;;;5055854;28;19909;-44
2022/05/02 13:24:55;;;;;;;;;;;;;;;;;;5055329;28;20035;-44
2022/05/02 13:27:20;;;;;;;;;;;;;;;;;;5061678;22;20054;-44
2022/05/02 13:29:46;;;;;;;;;;;;;;;;;;5035737;28;20015;-44
2022/05/02 13:32:11;;;;;;;;;;;;;;;;;;5052632;28;19928;-43
2022/05/02 13:34:36;;;;;;;;;;;;;;;;;;5055722;28;19913;-44
2022/05/02 13:37:03;;;;;;;;;;;;;;;;;;5055079;28;20150;-44
2022/05/02 13:39:28;;;;;;;;;;;;;;;;;;5054710;28;19912;-44
2022/05/02 13:41:55;;;;;;;;;;;;;;;;;;5055367;28;20322;-44
2022/05/02 13:44:21;;;;;;;;;;;;;;;;;;5054954;28;19913;-44
2022/05/02 13:46:46;;;;;;;;;;;;;;;;;;5055205;28;20229;-45
2022/05/02 13:49:12;;;;;;;;;;;;;;;;;;5055307;28;19959;-44
2022/05/02 13:51:38;;;;;;;;;;;;;;;;;;5055041;28;19975;-44
2022/05/02 13:54:04;;;;;;;;;;;;;;;;;;5055305;28;19916;-44
2022/05/02 13:56:29;;;;;;;;;;;;;;;;;;5054895;28;19913;-44
2022/05/02 13:58:55;;;;;;;;;;;;;;;;;;5055203;28;19945;-43
2022/05/02 14:03:53;;;;;;;;;;;;;;;;;;5054991;28;19952;-43
2022/05/02 14:06:23;;;;;;;;;;;;;;;;;;5054935;28;19909;-44
2022/05/02 14:08:48;;;;;;;;;;;;;;;;;;5055004;28;19999;-46
2022/05/02 14:11:16;;;;;;;;;;;;;;;;;;5054838;28;19963;-45
2022/05/02 14:13:41;;;;;;;;;;;;;;;;;;5054799;28;19916;-43
2022/05/02 14:16:06;;;;;;;;;;;;;;;;;;5054928;28;19909;-44
2022/05/02 14:18:33;;;;;;;;;;;;;;;;;;5054834;28;19966;-44
2022/05/02 14:20:58;;;;;;;;;;;;;;;;;;5054954;28;19912;-44
2022/05/02 14:23:25;;;;;;;;;;;;;;;;;;5054572;28;19996;-45
2022/05/02 14:25:50;;;;;;;;;;;;;;;;;;5054100;28;19931;-44
2022/05/02 14:28:15;;;;;;;;;;;;;;;;;;5054279;28;19920;-44
2022/05/02 14:30:41;;;;;;;;;;;;;;;;;;5054593;28;19913;-44
2022/05/02 14:33:06;;;;;;;;;;;;;;;;;;5054533;28;19956;-45
2022/05/02 14:35:38;;;;;;;;;;;;;;;;;;5054582;28;19913;-44
2022/05/02 14:38:03;;;;;;;;;;;;;;;;;;5054696;28;19909;-44
2022/05/02 14:40:28;;;;;;;;;;;;;;;;;;5054429;28;19962;-44
2022/05/02 14:42:53;;;;;;;;;;;;;;;;;;5054334;28;20372;-44
2022/05/02 14:45:21;;;;;;;;;;;;;;;;;;5054492;28;19909;-44
2022/05/02 14:47:46;;;;;;;;;;;;;;;;;;5054456;28;20437;-44
2022/05/02 14:50:11;;;;;;;;;;;;;;;;;;5055222;28;19912;-44
2022/05/02 14:52:36;;;;;;;;;;;;;;;;;;5058456;28;19958;-43
2022/05/02 14:55:02;;;;;;;;;;;;;;;;;;5058084;28;20052;-45
2022/05/02 14:57:27;;;;;;;;;;;;;;;;;;5058400;28;19912;-43
2022/05/02 14:59:52;;;;;;;;;;;;;;;;;;5058290;28;19916;-44
2022/05/02 15:02:17;;;;;;;;;;;;;;;;;;5058091;28;19909;-44
2022/05/02 15:04:42;;;;;;;;;;;;;;;;;;5058249;28;19913;-44
2022/05/02 15:07:09;;;;;;;;;;;;;;;;;;5058356;28;19909;-43
2022/05/02 15:12:18;;;;;;;;;;;;;;;;;;5058023;28;19935;-44
2022/05/02 15:14:43;;;;;;;;;;;;;;;;;;5058027;28;19909;-44
2022/05/02 15:17:09;;;;;;;;;;;;;;;;;;5057862;28;20324;-44
2022/05/02 15:19:34;;;;;;;;;;;;;;;;;;5058234;28;19955;-43
2022/05/02 15:21:59;;;;;;;;;;;;;;;;;;5057936;28;19935;-44
2022/05/02 15:24:24;;;;;;;;;;;;;;;;;;5057765;28;19909;-43
2022/05/02 15:26:50;;;;;;;;;;;;;;;;;;5062617;28;19913;-43
2022/05/02 15:37:27;;;;;;;;;;;;;;;;;;5077668;28;19915;-44
2022/05/02 15:39:52;;;;;;;;;;;;;;;;;;5077565;28;20016;-44
2022/05/02 15:42:17;;;;;;;;;;;;;;;;;;5077871;28;20362;-44
2022/05/02 15:44:42;;;;;;;;;;;;;;;;;;5077599;28;19959;-45
2022/05/02 15:47:07;;;;;;;;;;;;;;;;;;5077473;28;20363;-45
2022/05/02 15:49:33;;;;;;;;;;;;;;;;;;5077378;28;19973;-44
2022/05/02 15:51:59;;;;;;;;;;;;;;;;;;5077555;28;20291;-44
2022/05/02 15:54:24;;;;;;;;;;;;;;;;;;5074388;28;19920;-43
2022/05/02 15:56:49;;;;;;;;;;;;;;;;;;5056932;28;19913;-43
2022/05/02 15:59:15;;;;;;;;;;;;;;;;;;5057048;28;19913;-43
2022/05/02 16:01:40;;;;;;;;;;;;;;;;;;5056328;28;19915;-43
2022/05/02 16:04:05;;;;;;;;;;;;;;;;;;5057258;28;19913;-43
2022/05/02 16:06:30;;;;;;;;;;;;;;;;;;5057116;28;19935;-43
2022/05/02 16:11:39;;;;;;;;;;;;;;;;;;5057028;28;19923;-45
2022/05/02 16:14:05;;;;;;;;;;;;;;;;;;5057072;28;19908;-44
2022/05/02 16:16:32;;;;;;;;;;;;;;;;;;5055683;28;19909;-43
2022/05/02 16:18:57;;;;;;;;;;;;;;;;;;5057107;28;20264;-43
2022/05/02 16:21:22;;;;;;;;;;;;;;;;;;5057029;28;19912;-44
2022/05/02 16:23:47;;;;;;;;;;;;;;;;;;5056904;28;19909;-44
2022/05/02 16:26:14;;;;;;;;;;;;;;;;;;5056375;28;19917;-44
2022/05/02 16:28:39;;;;;;;;;;;;;;;;;;5056759;28;19952;-45
2022/05/02 16:31:04;;;;;;;;;;;;;;;;;;5056793;28;19967;-44
2022/05/02 16:33:29;;;;;;;;;;;;;;;;;;5056833;28;19912;-44
2022/05/02 16:35:54;;;;;;;;;;;;;;;;;;5056615;28;19909;-45
2022/05/02 16:38:19;;;;;;;;;;;;;;;;;;5056616;28;19909;-44
2022/05/02 16:40:46;;;;;;;;;;;;;;;;;;5056602;28;20241;-44
2022/05/02 16:43:11;;;;;;;;;;;;;;;;;;5056651;28;19917;-44
2022/05/02 16:45:36;;;;;;;;;;;;;;;;;;5056498;28;20309;-44
2022/05/02 16:48:02;;;;;;;;;;;;;;;;;;5056391;28;20363;-44
2022/05/02 16:50:27;;;;;;;;;;;;;;;;;;5056662;28;19954;-44
2022/05/02 16:52:53;;;;;;;;;;;;;;;;;;5056303;28;19974;-45
2022/05/02 16:55:18;;;;;;;;;;;;;;;;;;5056149;28;19920;-44
2022/05/02 16:57:43;;;;;;;;;;;;;;;;;;5056271;28;20268;-44
2022/05/02 17:00:08;;;;;;;;;;;;;;;;;;5056074;28;19909;-44
2022/05/02 17:02:34;;;;;;;;;;;;;;;;;;5056043;28;19989;-44
2022/05/02 17:04:59;;;;;;;;;;;;;;;;;;5055408;28;20386;-43
2022/05/02 17:07:24;;;;;;;;;;;;;;;;;;5056154;28;19909;-43
2022/05/02 17:09:51;;;;;;;;;;;;;;;;;;5055994;28;19908;-44
2022/05/02 17:12:17;;;;;;;;;;;;;;;;;;5056073;28;19919;-45
2022/05/02 17:14:42;;;;;;;;;;;;;;;;;;5055785;28;19912;-44
2022/05/02 17:17:07;;;;;;;;;;;;;;;;;;5055991;28;20004;-45
2022/05/02 17:19:32;;;;;;;;;;;;;;;;;;5071355;28;20342;-44
2022/05/02 17:21:58;;;;;;;;;;;;;;;;;;5056006;28;19909;-44
2022/05/02 17:24:24;;;;;;;;;;;;;;;;;;5055522;28;19913;-44
2022/05/02 17:26:49;;;;;;;;;;;;;;;;;;5055712;28;19908;-45